sensor_id;sensor_type;location;lat;lon;timestamp;P1;durP1;ratioP1;P2;durP2;ratioP2
30080;SDS011;16902;50.816;12.828;2023-07-13T00:04:05;13.23;;;12.73;;
30080;SDS011;16902;50.816;12.828;2023-07-13T00:09:07;12.73;;;12.23;;
30080;SDS011;16902;50.816;12.828;2023-07-13T00:14:10;12.85;;;12.35;;
30080;SDS011;16902;50.816;12.828;2023-07-13T00:19:12;12.32;;;11.93;;
30080;SDS011;16902;50.816;12.828;2023-07-13T00:24:16;12.38;;;11.98;;
30080;SDS011;16902;50.816;12.828;2023-07-13T00:29:25;13.13;;;12.63;;
30080;SDS011;16902;50.816;12.828;2023-07-13T00:34:27;12.88;;;12.38;;
30080;SDS011;16902;50.816;12.828;2023-07-13T00:39:29;12.45;;;11.95;;
30080;SDS011;16902;50.816;12.828;2023-07-13T00:44:31;12.73;;;12.23;;
30080;SDS011;16902;50.816;12.828;2023-07-13T00:49:33;12.60;;;12.10;;
30080;SDS011;16902;50.816;12.828;2023-07-13T00:54:38;12.82;;;12.32;;
30080;SDS011;16902;50.816;12.828;2023-07-13T00:59:50;12.30;;;11.80;;
30080;SDS011;16902;50.816;12.828;2023-07-13T01:04:56;12.02;;;11.52;;
30080;SDS011;16902;50.816;12.828;2023-07-13T01:09:58;12.15;;;11.65;;
30080;SDS011;16902;50.816;12.828;2023-07-13T01:15:00;11.27;;;10.88;;
30080;SDS011;16902;50.816;12.828;2023-07-13T01:20:03;11.50;;;11.10;;
30080;SDS011;16902;50.816;12.828;2023-07-13T01:25:06;11.98;;;11.48;;
30080;SDS011;16902;50.816;12.828;2023-07-13T01:30:10;12.05;;;11.63;;
30080;SDS011;16902;50.816;12.828;2023-07-13T01:35:12;10.68;;;10.27;;
30080;SDS011;16902;50.816;12.828;2023-07-13T01:40:14;11.27;;;10.88;;
30080;SDS011;16902;50.816;12.828;2023-07-13T01:45:17;11.43;;;11.02;;
30080;SDS011;16902;50.816;12.828;2023-07-13T01:50:19;11.75;;;11.35;;
30080;SDS011;16902;50.816;12.828;2023-07-13T01:55:21;11.38;;;10.98;;
30080;SDS011;16902;50.816;12.828;2023-07-13T02:00:23;11.25;;;10.77;;
30080;SDS011;16902;50.816;12.828;2023-07-13T02:05:26;12.23;;;11.70;;
30080;SDS011;16902;50.816;12.828;2023-07-13T02:10:28;11.02;;;10.63;;
30080;SDS011;16902;50.816;12.828;2023-07-13T02:15:30;10.75;;;10.35;;
30080;SDS011;16902;50.816;12.828;2023-07-13T02:20:32;11.05;;;10.65;;
30080;SDS011;16902;50.816;12.828;2023-07-13T02:25:34;10.70;;;10.30;;
30080;SDS011;16902;50.816;12.828;2023-07-13T02:30:36;10.95;;;10.55;;
30080;SDS011;16902;50.816;12.828;2023-07-13T02:35:38;10.45;;;10.05;;
30080;SDS011;16902;50.816;12.828;2023-07-13T02:40:40;10.40;;;10.00;;
30080;SDS011;16902;50.816;12.828;2023-07-13T02:45:45;10.60;;;10.20;;
30080;SDS011;16902;50.816;12.828;2023-07-13T02:50:47;10.10;;;9.70;;
30080;SDS011;16902;50.816;12.828;2023-07-13T02:55:49;10.35;;;9.95;;
30080;SDS011;16902;50.816;12.828;2023-07-13T03:00:55;9.70;;;9.30;;
30080;SDS011;16902;50.816;12.828;2023-07-13T03:05:59;10.25;;;9.85;;
30080;SDS011;16902;50.816;12.828;2023-07-13T03:11:13;9.98;;;9.48;;
30080;SDS011;16902;50.816;12.828;2023-07-13T03:16:18;9.38;;;9.07;;
30080;SDS011;16902;50.816;12.828;2023-07-13T03:21:23;9.82;;;9.43;;
30080;SDS011;16902;50.816;12.828;2023-07-13T03:26:25;9.95;;;9.55;;
30080;SDS011;16902;50.816;12.828;2023-07-13T03:31:27;9.88;;;9.48;;
30080;SDS011;16902;50.816;12.828;2023-07-13T03:36:32;9.77;;;9.38;;
30080;SDS011;16902;50.816;12.828;2023-07-13T03:41:38;10.15;;;9.75;;
30080;SDS011;16902;50.816;12.828;2023-07-13T03:46:40;10.18;;;9.77;;
30080;SDS011;16902;50.816;12.828;2023-07-13T03:51:42;9.10;;;8.80;;
30080;SDS011;16902;50.816;12.828;2023-07-13T03:56:44;8.98;;;8.68;;
30080;SDS011;16902;50.816;12.828;2023-07-13T04:01:47;9.90;;;9.50;;
30080;SDS011;16902;50.816;12.828;2023-07-13T04:06:49;9.75;;;9.35;;
30080;SDS011;16902;50.816;12.828;2023-07-13T04:11:51;9.77;;;9.38;;
30080;SDS011;16902;50.816;12.828;2023-07-13T04:16:53;9.60;;;9.20;;
30080;SDS011;16902;50.816;12.828;2023-07-13T04:21:56;9.30;;;9.00;;
30080;SDS011;16902;50.816;12.828;2023-07-13T04:27:02;9.70;;;9.30;;
30080;SDS011;16902;50.816;12.828;2023-07-13T04:32:05;9.50;;;9.10;;
30080;SDS011;16902;50.816;12.828;2023-07-13T04:37:07;9.32;;;8.77;;
30080;SDS011;16902;50.816;12.828;2023-07-13T04:42:09;9.00;;;8.60;;
30080;SDS011;16902;50.816;12.828;2023-07-13T04:47:11;8.80;;;8.45;;
30080;SDS011;16902;50.816;12.828;2023-07-13T04:52:13;8.35;;;8.05;;
30080;SDS011;16902;50.816;12.828;2023-07-13T04:57:15;10.05;;;9.38;;
30080;SDS011;16902;50.816;12.828;2023-07-13T05:02:18;9.80;;;9.30;;
30080;SDS011;16902;50.816;12.828;2023-07-13T05:07:22;10.65;;;10.13;;
30080;SDS011;16902;50.816;12.828;2023-07-13T05:12:24;10.45;;;10.05;;
30080;SDS011;16902;50.816;12.828;2023-07-13T05:17:26;9.75;;;9.35;;
30080;SDS011;16902;50.816;12.828;2023-07-13T05:22:28;9.57;;;9.18;;
30080;SDS011;16902;50.816;12.828;2023-07-13T05:27:30;9.63;;;9.23;;
30080;SDS011;16902;50.816;12.828;2023-07-13T05:32:32;9.13;;;8.82;;
30080;SDS011;16902;50.816;12.828;2023-07-13T05:37:35;9.20;;;8.80;;
30080;SDS011;16902;50.816;12.828;2023-07-13T05:42:39;10.25;;;9.85;;
30080;SDS011;16902;50.816;12.828;2023-07-13T05:47:40;10.70;;;10.30;;
30080;SDS011;16902;50.816;12.828;2023-07-13T05:52:42;10.73;;;10.32;;
30080;SDS011;16902;50.816;12.828;2023-07-13T05:57:44;11.27;;;10.88;;
30080;SDS011;16902;50.816;12.828;2023-07-13T06:02:46;11.55;;;11.15;;
30080;SDS011;16902;50.816;12.828;2023-07-13T06:07:48;12.05;;;11.50;;
30080;SDS011;16902;50.816;12.828;2023-07-13T06:12:50;12.55;;;12.05;;
30080;SDS011;16902;50.816;12.828;2023-07-13T06:17:52;13.18;;;12.32;;
30080;SDS011;16902;50.816;12.828;2023-07-13T06:22:54;12.48;;;11.90;;
30080;SDS011;16902;50.816;12.828;2023-07-13T06:27:58;12.25;;;11.75;;
30080;SDS011;16902;50.816;12.828;2023-07-13T06:33:02;12.50;;;12.00;;
30080;SDS011;16902;50.816;12.828;2023-07-13T06:38:03;11.98;;;11.50;;
30080;SDS011;16902;50.816;12.828;2023-07-13T06:43:06;12.20;;;11.70;;
30080;SDS011;16902;50.816;12.828;2023-07-13T06:48:08;11.80;;;11.40;;
30080;SDS011;16902;50.816;12.828;2023-07-13T06:53:11;11.80;;;11.30;;
30080;SDS011;16902;50.816;12.828;2023-07-13T06:58:14;11.90;;;11.40;;
30080;SDS011;16902;50.816;12.828;2023-07-13T07:03:18;12.85;;;12.35;;
30080;SDS011;16902;50.816;12.828;2023-07-13T07:08:20;12.27;;;11.80;;
30080;SDS011;16902;50.816;12.828;2023-07-13T07:13:22;12.63;;;12.13;;
30080;SDS011;16902;50.816;12.828;2023-07-13T07:18:24;13.52;;;13.02;;
30080;SDS011;16902;50.816;12.828;2023-07-13T07:23:26;12.90;;;12.40;;
30080;SDS011;16902;50.816;12.828;2023-07-13T07:28:28;12.63;;;12.13;;
30080;SDS011;16902;50.816;12.828;2023-07-13T07:33:43;12.65;;;12.15;;
30080;SDS011;16902;50.816;12.828;2023-07-13T07:38:45;13.05;;;12.55;;
30080;SDS011;16902;50.816;12.828;2023-07-13T07:43:47;12.77;;;12.20;;
30080;SDS011;16902;50.816;12.828;2023-07-13T07:48:49;12.75;;;12.25;;
30080;SDS011;16902;50.816;12.828;2023-07-13T07:53:51;12.50;;;12.00;;
30080;SDS011;16902;50.816;12.828;2023-07-13T07:58:53;12.45;;;11.95;;
30080;SDS011;16902;50.816;12.828;2023-07-13T08:03:58;13.18;;;12.68;;
30080;SDS011;16902;50.816;12.828;2023-07-13T08:09:02;13.00;;;12.50;;
30080;SDS011;16902;50.816;12.828;2023-07-13T08:14:05;12.75;;;12.25;;
30080;SDS011;16902;50.816;12.828;2023-07-13T08:19:07;12.65;;;12.15;;
30080;SDS011;16902;50.816;12.828;2023-07-13T08:24:09;12.80;;;12.30;;
30080;SDS011;16902;50.816;12.828;2023-07-13T08:29:12;13.38;;;12.88;;
30080;SDS011;16902;50.816;12.828;2023-07-13T08:34:13;13.05;;;12.55;;
30080;SDS011;16902;50.816;12.828;2023-07-13T08:39:18;13.15;;;12.65;;
30080;SDS011;16902;50.816;12.828;2023-07-13T08:44:24;13.40;;;12.90;;
30080;SDS011;16902;50.816;12.828;2023-07-13T08:49:37;13.55;;;13.05;;
30080;SDS011;16902;50.816;12.828;2023-07-13T08:54:41;13.27;;;12.77;;
30080;SDS011;16902;50.816;12.828;2023-07-13T08:59:47;13.15;;;12.65;;
30080;SDS011;16902;50.816;12.828;2023-07-13T09:04:50;13.07;;;12.57;;
30080;SDS011;16902;50.816;12.828;2023-07-13T09:10:09;12.75;;;12.25;;
30080;SDS011;16902;50.816;12.828;2023-07-13T09:15:35;12.32;;;11.75;;
30080;SDS011;16902;50.816;12.828;2023-07-13T09:25:47;12.75;;;12.25;;
30080;SDS011;16902;50.816;12.828;2023-07-13T09:36:22;12.43;;;11.98;;
30080;SDS011;16902;50.816;12.828;2023-07-13T09:46:52;13.18;;;12.68;;
30080;SDS011;16902;50.816;12.828;2023-07-13T09:52:00;13.02;;;12.52;;
30080;SDS011;16902;50.816;12.828;2023-07-13T09:57:15;13.13;;;12.63;;
30080;SDS011;16902;50.816;12.828;2023-07-13T10:07:31;12.93;;;12.43;;
30080;SDS011;16902;50.816;12.828;2023-07-13T10:12:39;12.77;;;12.27;;
30080;SDS011;16902;50.816;12.828;2023-07-13T10:17:41;12.82;;;12.32;;
30080;SDS011;16902;50.816;12.828;2023-07-13T10:22:54;12.85;;;12.35;;
30080;SDS011;16902;50.816;12.828;2023-07-13T10:28:20;13.65;;;13.05;;
30080;SDS011;16902;50.816;12.828;2023-07-13T10:33:28;13.38;;;12.88;;
30080;SDS011;16902;50.816;12.828;2023-07-13T10:38:30;12.57;;;12.07;;
30080;SDS011;16902;50.816;12.828;2023-07-13T10:43:35;13.05;;;12.55;;
30080;SDS011;16902;50.816;12.828;2023-07-13T10:48:39;13.23;;;12.73;;
30080;SDS011;16902;50.816;12.828;2023-07-13T10:53:43;13.30;;;12.75;;
30080;SDS011;16902;50.816;12.828;2023-07-13T10:59:01;12.82;;;12.32;;
30080;SDS011;16902;50.816;12.828;2023-07-13T11:04:22;13.30;;;12.80;;
30080;SDS011;16902;50.816;12.828;2023-07-13T11:15:12;13.63;;;13.13;;
30080;SDS011;16902;50.816;12.828;2023-07-13T11:35:31;12.57;;;12.07;;
30080;SDS011;16902;50.816;12.828;2023-07-13T11:40:37;12.60;;;12.10;;
30080;SDS011;16902;50.816;12.828;2023-07-13T11:45:39;12.57;;;12.07;;
30080;SDS011;16902;50.816;12.828;2023-07-13T11:50:53;12.35;;;11.85;;
30080;SDS011;16902;50.816;12.828;2023-07-13T11:56:18;12.77;;;12.27;;
30080;SDS011;16902;50.816;12.828;2023-07-13T12:01:25;13.02;;;12.48;;
30080;SDS011;16902;50.816;12.828;2023-07-13T12:06:35;13.15;;;12.65;;
30080;SDS011;16902;50.816;12.828;2023-07-13T12:11:41;13.32;;;12.82;;
30080;SDS011;16902;50.816;12.828;2023-07-13T12:16:46;13.00;;;12.50;;
30080;SDS011;16902;50.816;12.828;2023-07-13T12:21:52;13.18;;;12.68;;
30080;SDS011;16902;50.816;12.828;2023-07-13T12:27:00;12.63;;;12.13;;
30080;SDS011;16902;50.816;12.828;2023-07-13T12:32:08;13.10;;;12.60;;
30080;SDS011;16902;50.816;12.828;2023-07-13T12:37:11;11.75;;;11.35;;
30080;SDS011;16902;50.816;12.828;2023-07-13T12:42:24;12.70;;;12.20;;
30080;SDS011;16902;50.816;12.828;2023-07-13T12:47:29;12.93;;;12.43;;
30080;SDS011;16902;50.816;12.828;2023-07-13T12:52:33;13.00;;;12.50;;
30080;SDS011;16902;50.816;12.828;2023-07-13T12:57:57;13.30;;;12.80;;
30080;SDS011;16902;50.816;12.828;2023-07-13T13:03:04;13.23;;;12.73;;
30080;SDS011;16902;50.816;12.828;2023-07-13T13:08:27;12.65;;;12.15;;
30080;SDS011;16902;50.816;12.828;2023-07-13T13:13:29;12.85;;;12.35;;
30080;SDS011;16902;50.816;12.828;2023-07-13T13:18:32;12.82;;;12.32;;
30080;SDS011;16902;50.816;12.828;2023-07-13T13:23:34;12.85;;;12.35;;
30080;SDS011;16902;50.816;12.828;2023-07-13T13:28:36;12.80;;;12.30;;
30080;SDS011;16902;50.816;12.828;2023-07-13T13:33:38;13.20;;;12.70;;
30080;SDS011;16902;50.816;12.828;2023-07-13T13:38:44;13.43;;;12.93;;
30080;SDS011;16902;50.816;12.828;2023-07-13T13:43:47;13.70;;;13.20;;
30080;SDS011;16902;50.816;12.828;2023-07-13T13:48:49;13.20;;;12.70;;
30080;SDS011;16902;50.816;12.828;2023-07-13T13:53:51;13.10;;;12.60;;
30080;SDS011;16902;50.816;12.828;2023-07-13T13:58:54;13.07;;;12.57;;
30080;SDS011;16902;50.816;12.828;2023-07-13T14:03:56;13.30;;;12.80;;
30080;SDS011;16902;50.816;12.828;2023-07-13T14:09:01;13.30;;;12.80;;
30080;SDS011;16902;50.816;12.828;2023-07-13T14:14:04;13.13;;;12.63;;
30080;SDS011;16902;50.816;12.828;2023-07-13T14:19:07;12.73;;;12.23;;
30080;SDS011;16902;50.816;12.828;2023-07-13T14:24:12;12.40;;;12.00;;
30080;SDS011;16902;50.816;12.828;2023-07-13T14:29:15;13.10;;;12.60;;
30080;SDS011;16902;50.816;12.828;2023-07-13T14:34:22;12.88;;;12.38;;
30080;SDS011;16902;50.816;12.828;2023-07-13T14:39:24;12.43;;;11.93;;
30080;SDS011;16902;50.816;12.828;2023-07-13T14:44:27;12.27;;;11.88;;
30080;SDS011;16902;50.816;12.828;2023-07-13T14:49:32;12.38;;;11.98;;
30080;SDS011;16902;50.816;12.828;2023-07-13T14:54:40;12.73;;;12.23;;
30080;SDS011;16902;50.816;12.828;2023-07-13T14:59:45;12.98;;;12.48;;
30080;SDS011;16902;50.816;12.828;2023-07-13T15:04:48;12.90;;;12.40;;
30080;SDS011;16902;50.816;12.828;2023-07-13T15:09:50;13.02;;;12.52;;
30080;SDS011;16902;50.816;12.828;2023-07-13T15:14:52;12.75;;;12.25;;
30080;SDS011;16902;50.816;12.828;2023-07-13T15:19:56;12.80;;;12.30;;
30080;SDS011;16902;50.816;12.828;2023-07-13T15:24:57;12.90;;;12.40;;
30080;SDS011;16902;50.816;12.828;2023-07-13T15:30:02;13.18;;;12.68;;
30080;SDS011;16902;50.816;12.828;2023-07-13T15:35:08;13.10;;;12.60;;
30080;SDS011;16902;50.816;12.828;2023-07-13T15:40:19;13.38;;;12.88;;
30080;SDS011;16902;50.816;12.828;2023-07-13T15:45:23;13.30;;;12.80;;
30080;SDS011;16902;50.816;12.828;2023-07-13T15:50:29;12.82;;;12.32;;
30080;SDS011;16902;50.816;12.828;2023-07-13T15:55:45;12.68;;;12.18;;
30080;SDS011;16902;50.816;12.828;2023-07-13T16:00:46;12.55;;;12.05;;
30080;SDS011;16902;50.816;12.828;2023-07-13T16:05:52;12.63;;;12.13;;
30080;SDS011;16902;50.816;12.828;2023-07-13T16:10:55;13.13;;;12.63;;
30080;SDS011;16902;50.816;12.828;2023-07-13T16:15:58;12.50;;;12.00;;
30080;SDS011;16902;50.816;12.828;2023-07-13T16:21:00;13.30;;;12.80;;
30080;SDS011;16902;50.816;12.828;2023-07-13T16:26:02;13.18;;;12.68;;
30080;SDS011;16902;50.816;12.828;2023-07-13T16:31:04;13.25;;;12.75;;
30080;SDS011;16902;50.816;12.828;2023-07-13T16:36:12;13.50;;;13.00;;
30080;SDS011;16902;50.816;12.828;2023-07-13T16:41:14;13.30;;;12.80;;
30080;SDS011;16902;50.816;12.828;2023-07-13T16:46:19;13.73;;;13.23;;
30080;SDS011;16902;50.816;12.828;2023-07-13T16:51:24;13.57;;;13.07;;
30080;SDS011;16902;50.816;12.828;2023-07-13T16:56:26;13.45;;;12.95;;
30080;SDS011;16902;50.816;12.828;2023-07-13T17:01:28;13.50;;;13.00;;
30080;SDS011;16902;50.816;12.828;2023-07-13T17:06:30;13.07;;;12.57;;
30080;SDS011;16902;50.816;12.828;2023-07-13T17:11:32;13.98;;;13.48;;
30080;SDS011;16902;50.816;12.828;2023-07-13T17:16:34;13.30;;;12.80;;
30080;SDS011;16902;50.816;12.828;2023-07-13T17:21:36;13.60;;;13.10;;
30080;SDS011;16902;50.816;12.828;2023-07-13T17:26:38;13.77;;;13.27;;
30080;SDS011;16902;50.816;12.828;2023-07-13T17:31:39;13.13;;;12.63;;
30080;SDS011;16902;50.816;12.828;2023-07-13T17:36:41;13.40;;;12.90;;
30080;SDS011;16902;50.816;12.828;2023-07-13T17:41:44;12.85;;;12.35;;
30080;SDS011;16902;50.816;12.828;2023-07-13T17:46:46;12.95;;;12.45;;
30080;SDS011;16902;50.816;12.828;2023-07-13T17:51:49;13.18;;;12.68;;
30080;SDS011;16902;50.816;12.828;2023-07-13T17:56:52;12.88;;;12.38;;
30080;SDS011;16902;50.816;12.828;2023-07-13T18:01:54;13.02;;;12.52;;
30080;SDS011;16902;50.816;12.828;2023-07-13T18:06:56;12.32;;;11.85;;
30080;SDS011;16902;50.816;12.828;2023-07-13T18:11:57;12.32;;;11.88;;
30080;SDS011;16902;50.816;12.828;2023-07-13T18:16:59;13.00;;;12.50;;
30080;SDS011;16902;50.816;12.828;2023-07-13T18:22:03;12.88;;;12.38;;
30080;SDS011;16902;50.816;12.828;2023-07-13T18:27:17;12.70;;;12.20;;
30080;SDS011;16902;50.816;12.828;2023-07-13T18:32:19;12.50;;;12.07;;
30080;SDS011;16902;50.816;12.828;2023-07-13T18:37:22;12.77;;;12.30;;
30080;SDS011;16902;50.816;12.828;2023-07-13T18:42:24;12.98;;;12.48;;
30080;SDS011;16902;50.816;12.828;2023-07-13T18:47:26;13.02;;;12.52;;
30080;SDS011;16902;50.816;12.828;2023-07-13T18:52:34;13.18;;;12.68;;
30080;SDS011;16902;50.816;12.828;2023-07-13T18:57:35;13.48;;;12.88;;
30080;SDS011;16902;50.816;12.828;2023-07-13T19:02:37;12.50;;;12.10;;
30080;SDS011;16902;50.816;12.828;2023-07-13T19:07:39;12.57;;;12.07;;
30080;SDS011;16902;50.816;12.828;2023-07-13T19:12:43;12.90;;;12.40;;
30080;SDS011;16902;50.816;12.828;2023-07-13T19:17:47;11.63;;;11.23;;
30080;SDS011;16902;50.816;12.828;2023-07-13T19:22:49;12.35;;;11.95;;
30080;SDS011;16902;50.816;12.828;2023-07-13T19:27:59;11.55;;;11.15;;
30080;SDS011;16902;50.816;12.828;2023-07-13T19:33:08;12.27;;;11.80;;
30080;SDS011;16902;50.816;12.828;2023-07-13T19:38:17;11.48;;;11.07;;
30080;SDS011;16902;50.816;12.828;2023-07-13T19:43:23;11.77;;;11.38;;
30080;SDS011;16902;50.816;12.828;2023-07-13T19:48:24;12.85;;;12.35;;
30080;SDS011;16902;50.816;12.828;2023-07-13T19:53:26;12.25;;;11.85;;
30080;SDS011;16902;50.816;12.828;2023-07-13T19:58:29;12.52;;;12.13;;
30080;SDS011;16902;50.816;12.828;2023-07-13T20:03:31;12.65;;;12.15;;
30080;SDS011;16902;50.816;12.828;2023-07-13T20:08:33;11.90;;;11.50;;
30080;SDS011;16902;50.816;12.828;2023-07-13T20:13:35;13.00;;;12.50;;
30080;SDS011;16902;50.816;12.828;2023-07-13T20:18:36;12.13;;;11.73;;
30080;SDS011;16902;50.816;12.828;2023-07-13T20:23:38;12.52;;;12.13;;
30080;SDS011;16902;50.816;12.828;2023-07-13T20:28:40;12.10;;;11.70;;
30080;SDS011;16902;50.816;12.828;2023-07-13T20:33:43;12.77;;;12.30;;
30080;SDS011;16902;50.816;12.828;2023-07-13T20:38:45;12.30;;;11.90;;
30080;SDS011;16902;50.816;12.828;2023-07-13T20:43:47;12.45;;;12.05;;
30080;SDS011;16902;50.816;12.828;2023-07-13T20:48:50;12.45;;;12.05;;
30080;SDS011;16902;50.816;12.828;2023-07-13T20:53:52;12.85;;;12.35;;
30080;SDS011;16902;50.816;12.828;2023-07-13T20:58:55;11.82;;;11.43;;
30080;SDS011;16902;50.816;12.828;2023-07-13T21:03:58;11.80;;;11.40;;
30080;SDS011;16902;50.816;12.828;2023-07-13T21:09:08;12.55;;;12.05;;
30080;SDS011;16902;50.816;12.828;2023-07-13T21:14:20;13.15;;;12.55;;
30080;SDS011;16902;50.816;12.828;2023-07-13T21:19:25;13.18;;;12.68;;
30080;SDS011;16902;50.816;12.828;2023-07-13T21:24:27;12.45;;;12.02;;
30080;SDS011;16902;50.816;12.828;2023-07-13T21:29:29;12.52;;;12.13;;
30080;SDS011;16902;50.816;12.828;2023-07-13T21:34:31;12.70;;;12.20;;
30080;SDS011;16902;50.816;12.828;2023-07-13T21:39:33;11.95;;;11.55;;
30080;SDS011;16902;50.816;12.828;2023-07-13T21:44:35;12.02;;;11.63;;
30080;SDS011;16902;50.816;12.828;2023-07-13T21:49:37;13.10;;;12.60;;
30080;SDS011;16902;50.816;12.828;2023-07-13T21:54:39;13.30;;;12.80;;
30080;SDS011;16902;50.816;12.828;2023-07-13T21:59:41;11.75;;;11.35;;
30080;SDS011;16902;50.816;12.828;2023-07-13T22:04:43;12.15;;;11.65;;
30080;SDS011;16902;50.816;12.828;2023-07-13T22:09:46;12.52;;;12.02;;
30080;SDS011;16902;50.816;12.828;2023-07-13T22:14:48;11.05;;;10.55;;
30080;SDS011;16902;50.816;12.828;2023-07-13T22:19:49;12.52;;;12.02;;
30080;SDS011;16902;50.816;12.828;2023-07-13T22:24:53;12.52;;;12.02;;
30080;SDS011;16902;50.816;12.828;2023-07-13T22:29:55;12.00;;;11.60;;
30080;SDS011;16902;50.816;12.828;2023-07-13T22:34:57;12.73;;;12.23;;
30080;SDS011;16902;50.816;12.828;2023-07-13T22:40:02;13.13;;;12.45;;
30080;SDS011;16902;50.816;12.828;2023-07-13T22:45:08;12.20;;;11.80;;
30080;SDS011;16902;50.816;12.828;2023-07-13T22:50:15;12.30;;;11.90;;
30080;SDS011;16902;50.816;12.828;2023-07-13T22:55:18;12.70;;;12.20;;
30080;SDS011;16902;50.816;12.828;2023-07-13T23:00:22;11.70;;;11.30;;
30080;SDS011;16902;50.816;12.828;2023-07-13T23:05:24;11.07;;;10.68;;
30080;SDS011;16902;50.816;12.828;2023-07-13T23:10:27;11.50;;;11.10;;
30080;SDS011;16902;50.816;12.828;2023-07-13T23:15:30;12.77;;;12.27;;
30080;SDS011;16902;50.816;12.828;2023-07-13T23:20:33;11.25;;;10.85;;
30080;SDS011;16902;50.816;12.828;2023-07-13T23:25:37;12.02;;;11.52;;
30080;SDS011;16902;50.816;12.828;2023-07-13T23:30:42;11.55;;;11.15;;
30080;SDS011;16902;50.816;12.828;2023-07-13T23:35:48;11.18;;;10.77;;
30080;SDS011;16902;50.816;12.828;2023-07-13T23:40:51;10.85;;;10.45;;
30080;SDS011;16902;50.816;12.828;2023-07-13T23:45:54;11.95;;;11.38;;
30080;SDS011;16902;50.816;12.828;2023-07-13T23:50:56;11.27;;;10.88;;
30080;SDS011;16902;50.816;12.828;2023-07-13T23:55:58;11.82;;;11.32;;
